Time;durP1;ratioP1;P1;durP2;ratioP2;P2;SDS_P1;SDS_P2;PMS_P1;PMS_P2;Temp;Humidity;BMP_temperature;BMP_pressure;BME280_temperature;BME280_humidity;BME280_pressure;Samples;Min_cycle;Max_cycle;Signal;HPM_P1;HPM_P2
2021/12/20 00:01:42;;;;;;;3.53;0.70;;;2.50;99.90;1.40;101026.00;;;;5050956;27;93872;-70
2021/12/20 00:04:08;;;;;;;4.80;1.07;;;1.80;99.90;1.30;101014.00;;;;5033851;27;92864;-69
2021/12/20 00:06:34;;;;;;;0.83;0.60;;;1.60;99.90;1.30;101006.00;;;;5034238;27;92856;-69
2021/12/20 00:09:00;;;;;;;0.60;0.50;;;1.70;99.90;1.20;100999.00;;;;5032726;27;92724;-69
2021/12/20 00:11:25;;;;;;;0.77;0.73;;;1.60;99.90;1.20;101002.00;;;;5012803;27;123489;-72
2021/12/20 00:13:51;;;;;;;1.87;1.03;;;1.50;99.90;1.10;101012.00;;;;5039545;27;122799;-72
2021/12/20 00:16:17;;;;;;;1.03;0.53;;;2.20;99.90;1.10;101005.00;;;;5053043;27;110631;-70
2021/12/20 00:18:43;;;;;;;1.07;0.60;;;2.00;99.90;1.00;101014.00;;;;5051463;27;92949;-69
2021/12/20 00:21:10;;;;;;;0.37;0.37;;;1.40;99.90;1.00;101008.00;;;;5034142;27;93125;-69
2021/12/20 00:23:36;;;;;;;0.50;0.40;;;1.80;99.90;1.00;101010.00;;;;5051502;27;108199;-70
2021/12/20 00:26:02;;;;;;;1.47;0.50;;;1.30;99.90;0.90;101014.00;;;;5053501;27;92817;-70
2021/12/20 00:28:28;;;;;;;0.87;0.60;;;1.20;99.90;0.80;101025.00;;;;5043648;27;108471;-70
2021/12/20 00:30:54;;;;;;;1.30;0.77;;;2.00;99.90;0.80;101019.00;;;;5045320;27;122362;-69
2021/12/20 00:33:20;;;;;;;0.77;0.53;;;1.10;99.90;0.80;101023.00;;;;5055649;27;93627;-72
2021/12/20 00:35:47;;;;;;;0.87;0.30;;;1.20;99.90;0.80;101019.00;;;;5043158;27;93708;-71
2021/12/20 00:40:57;;;;;;;2.33;0.50;;;1.10;99.90;0.70;101007.00;;;;5032585;27;92337;-72
2021/12/20 00:43:23;;;;;;;2.53;0.40;;;1.00;99.90;0.70;101003.00;;;;5035500;27;92991;-70
2021/12/20 00:45:49;;;;;;;6.73;0.83;;;1.00;99.90;0.60;101014.00;;;;5054398;27;92906;-73
2021/12/20 00:48:15;;;;;;;0.50;0.40;;;1.00;99.90;0.60;101014.00;;;;5053706;27;108565;-72
2021/12/20 00:50:43;;;;;;;0.67;0.63;;;0.90;99.90;0.60;101020.00;;;;5054698;27;93177;-72
2021/12/20 00:53:10;;;;;;;0.90;0.33;;;0.90;99.90;0.60;101017.00;;;;5055221;27;93910;-70
2021/12/20 00:55:36;;;;;;;2.20;0.60;;;1.00;99.90;0.50;101029.00;;;;5055498;27;92827;-70
2021/12/20 00:58:03;;;;;;;1.00;0.60;;;0.90;99.90;0.50;101033.00;;;;5034957;27;95843;-74
2021/12/20 01:00:37;;;;;;;2.63;0.50;;;0.90;99.90;0.50;101027.00;;;;5035158;27;94037;-72
2021/12/20 01:03:06;;;;;;;1.57;0.50;;;0.90;99.90;0.50;101026.00;;;;5035262;27;93986;-70
2021/12/20 01:05:33;;;;;;;1.40;0.47;;;0.80;99.90;0.50;101033.00;;;;5047560;27;92016;-72
2021/12/20 01:08:01;;;;;;;4.20;0.70;;;0.70;99.90;0.40;101043.00;;;;5029008;27;92738;-71
2021/12/20 01:10:29;;;;;;;2.73;1.00;;;0.70;99.90;0.40;101042.00;;;;5034962;27;92895;-72
2021/12/20 01:12:58;;;;;;;0.67;0.50;;;0.70;99.90;0.30;101032.00;;;;5015884;27;94354;-71
2021/12/20 01:15:32;;;;;;;1.17;0.43;;;0.70;99.90;0.30;101035.00;;;;5047601;27;92807;-70
2021/12/20 01:17:58;;;;;;;0.60;0.60;;;0.70;99.90;0.30;101038.00;;;;5033339;27;92942;-70
2021/12/20 01:20:25;;;;;;;0.93;0.50;;;0.90;99.90;0.20;101024.00;;;;5042623;27;94050;-70
2021/12/20 01:22:52;;;;;;;2.03;0.57;;;1.40;99.90;0.20;101037.00;;;;5054863;27;101829;-70
2021/12/20 01:25:19;;;;;;;2.30;0.63;;;0.50;99.90;0.20;101029.00;;;;5046263;27;96384;-70
2021/12/20 01:27:44;;;;;;;0.30;0.30;;;0.50;99.90;0.10;101040.00;;;;5035029;27;98203;-70
2021/12/20 01:30:13;;;;;;;1.07;0.80;;;1.00;99.90;0.10;101047.00;;;;5041676;27;122137;-70
2021/12/20 01:32:40;;;;;;;0.83;0.50;;;0.50;99.90;0.10;101039.00;;;;5054554;27;106241;-70
2021/12/20 01:35:08;;;;;;;1.17;0.40;;;0.40;99.90;0.10;101043.00;;;;5054716;27;92904;-70
2021/12/20 01:37:33;;;;;;;1.40;0.47;;;0.40;99.90;0.10;101034.00;;;;5046478;27;98242;-71
2021/12/20 01:39:59;;;;;;;0.70;0.70;;;0.40;99.90;0.10;101045.00;;;;5014420;27;122472;-72
2021/12/20 01:42:30;;;;;;;5.57;1.13;;;0.40;99.90;0.10;101049.00;;;;5035197;27;93919;-72
2021/12/20 01:44:57;;;;;;;1.60;0.70;;;0.40;99.90;0.00;101051.00;;;;5016466;27;92806;-72
2021/12/20 01:47:46;;;;;;;0.60;0.33;;;0.40;99.90;0.00;101052.00;;;;5018534;27;92764;-71
2021/12/20 01:50:40;;;;;;;1.33;0.80;;;0.30;99.90;0.00;101043.00;;;;5017653;27;93484;-71
2021/12/20 01:53:08;;;;;;;0.47;0.47;;;0.30;99.90;0.00;101044.00;;;;5033946;27;92863;-71
2021/12/20 01:55:34;;;;;;;0.90;0.90;;;0.40;99.90;0.00;101054.00;;;;5029725;27;92180;-72
2021/12/20 01:57:59;;;;;;;3.50;0.70;;;0.30;99.90;0.00;101057.00;;;;5048665;27;108999;-71
2021/12/20 02:00:28;;;;;;;1.70;0.67;;;0.50;99.90;0.00;101056.00;;;;5033552;27;123325;-70
2021/12/20 02:02:59;;;;;;;0.73;0.50;;;0.30;99.90;0.00;101055.00;;;;5033509;27;93765;-70
2021/12/20 02:05:47;;;;;;;1.33;0.80;;;0.30;99.90;0.00;101050.00;;;;5009558;27;94230;-69
2021/12/20 02:08:23;;;;;;;3.43;0.57;;;0.30;99.90;-0.10;101057.00;;;;5045623;27;93135;-70
2021/12/20 02:10:56;;;;;;;0.83;0.60;;;0.30;99.90;-0.10;101061.00;;;;5034334;27;92903;-69
2021/12/20 02:13:24;;;;;;;4.03;0.90;;;0.20;99.90;-0.10;101053.00;;;;5037402;27;93690;-69
2021/12/20 02:15:51;;;;;;;0.70;0.67;;;0.20;99.90;-0.10;101049.00;;;;5055287;27;92676;-69
2021/12/20 02:18:17;;;;;;;4.53;0.93;;;0.10;99.90;-0.20;101045.00;;;;5054157;27;93305;-69
2021/12/20 02:20:42;;;;;;;2.53;1.07;;;0.20;99.90;-0.20;101052.00;;;;5054294;27;118524;-69
2021/12/20 02:23:08;;;;;;;1.37;0.70;;;0.50;99.90;-0.30;101046.00;;;;5053264;27;121339;-69
2021/12/20 02:25:36;;;;;;;1.40;1.03;;;0.10;99.90;-0.30;101050.00;;;;5054567;27;92952;-70
2021/12/20 02:28:11;;;;;;;0.73;0.50;;;0.10;99.90;-0.30;101056.00;;;;5053395;27;93955;-73
2021/12/20 02:30:53;;;;;;;0.63;0.50;;;0.00;99.90;-0.30;101051.00;;;;5054078;27;93488;-71
2021/12/20 02:38:49;;;;;;;1.40;0.57;;;0.00;99.90;-0.40;101064.00;;;;5033963;27;92788;-71
2021/12/20 02:41:25;;;;;;;0.73;0.73;;;-0.10;99.90;-0.50;101073.00;;;;5036979;27;92996;-74
2021/12/20 02:43:55;;;;;;;0.83;0.83;;;1.00;99.90;-0.50;101068.00;;;;5026038;27;93554;-73
2021/12/20 02:49:29;;;;;;;1.40;0.67;;;-0.10;99.90;-0.60;101071.00;;;;5033058;27;92967;-73
2021/12/20 02:52:05;;;;;;;0.83;0.50;;;-0.10;99.90;-0.60;101074.00;;;;4993826;27;105621;-72
2021/12/20 02:54:32;;;;;;;2.03;1.00;;;-0.20;99.90;-0.60;101075.00;;;;5013205;27;93875;-72
2021/12/20 02:56:58;;;;;;;0.77;0.60;;;-0.30;99.90;-0.70;101063.00;;;;5032257;27;110781;-73
2021/12/20 02:59:24;;;;;;;2.40;1.00;;;-0.30;99.90;-0.70;101069.00;;;;5015678;27;92883;-73
2021/12/20 03:01:57;;;;;;;2.30;0.90;;;-0.30;99.90;-0.70;101069.00;;;;5032851;27;106830;-73
2021/12/20 03:04:23;;;;;;;1.87;1.00;;;-0.40;99.90;-0.80;101070.00;;;;5032454;27;94482;-72
2021/12/20 03:07:13;;;;;;;6.80;0.60;;;-0.40;99.90;-0.80;101078.00;;;;5033574;27;92961;-72
2021/12/20 03:09:44;;;;;;;0.67;0.63;;;-0.40;99.90;-0.80;101086.00;;;;5041175;27;92901;-72
2021/12/20 03:12:13;;;;;;;0.77;0.67;;;-0.40;99.90;-0.80;101088.00;;;;5053677;27;92820;-72
2021/12/20 03:14:43;;;;;;;0.60;0.60;;;-0.50;99.90;-0.80;101091.00;;;;5053800;27;92802;-72
2021/12/20 03:17:10;;;;;;;4.13;0.60;;;-0.40;99.90;-0.90;101105.00;;;;5053865;27;92726;-72
2021/12/20 03:19:36;;;;;;;0.73;0.60;;;-0.20;99.90;-0.90;101094.00;;;;5052015;27;108328;-72
2021/12/20 03:22:04;;;;;;;1.23;0.60;;;-0.60;99.90;-0.90;101101.00;;;;5052771;27;105702;-73
2021/12/20 03:24:30;;;;;;;1.30;0.73;;;-0.50;99.90;-0.90;101086.00;;;;5039388;27;92985;-73
2021/12/20 03:26:56;;;;;;;4.00;0.70;;;-0.60;99.90;-0.90;101101.00;;;;5052345;27;111509;-73
2021/12/20 03:29:22;;;;;;;3.83;0.87;;;-0.60;99.90;-1.00;101109.00;;;;5051992;27;92927;-72
2021/12/20 03:31:48;;;;;;;1.97;0.87;;;-0.40;99.90;-1.00;101115.00;;;;5032175;27;121765;-72
2021/12/20 03:34:14;;;;;;;0.73;0.50;;;-0.70;99.90;-1.00;101111.00;;;;5052577;27;93428;-72
2021/12/20 03:36:40;;;;;;;3.23;0.87;;;-0.40;99.90;-1.00;101109.00;;;;5053882;27;92231;-72
2021/12/20 03:39:08;;;;;;;0.93;0.87;;;-0.50;99.90;-1.00;101116.00;;;;5033435;27;92897;-71
2021/12/20 03:41:35;;;;;;;6.23;1.10;;;-0.70;99.90;-1.10;101129.00;;;;5051209;27;94511;-71
2021/12/20 03:44:01;;;;;;;5.13;0.93;;;-0.70;99.90;-1.10;101118.00;;;;5051968;27;93777;-71
2021/12/20 03:46:26;;;;;;;0.57;0.57;;;-0.60;99.90;-1.10;101112.00;;;;5043457;27;109000;-71
2021/12/20 03:48:52;;;;;;;1.13;0.73;;;-0.60;99.90;-1.10;101119.00;;;;5033041;27;92831;-71
2021/12/20 03:51:18;;;;;;;4.47;0.70;;;-0.10;99.90;-1.10;101109.00;;;;5032246;27;118520;-71
2021/12/20 03:53:44;;;;;;;2.73;1.57;;;-0.80;99.90;-1.10;101110.00;;;;5032418;27;122574;-69
2021/12/20 03:56:10;;;;;;;1.20;1.10;;;-0.80;99.90;-1.10;101112.00;;;;5032391;27;92826;-69
2021/12/20 03:58:36;;;;;;;3.40;1.30;;;-0.80;99.90;-1.20;101116.00;;;;5031884;27;108149;-73
2021/12/20 04:01:10;;;;;;;3.57;0.70;;;-0.80;99.90;-1.10;101135.00;;;;5032758;27;92825;-70
2021/12/20 04:03:37;;;;;;;4.37;1.50;;;-0.90;99.90;-1.10;101125.00;;;;5034397;27;92986;-70
2021/12/20 04:06:06;;;;;;;1.13;0.60;;;-0.80;99.90;-1.20;101112.00;;;;5034042;27;93119;-70
2021/12/20 04:08:32;;;;;;;0.80;0.70;;;-0.80;99.90;-1.20;101113.00;;;;5055801;27;93930;-70
2021/12/20 04:10:59;;;;;;;4.63;1.03;;;-0.70;99.90;-1.10;101113.00;;;;5041278;27;119559;-69
2021/12/20 04:13:26;;;;;;;0.70;0.70;;;-0.80;99.90;-1.10;101110.00;;;;5017398;27;92989;-70
2021/12/20 04:15:53;;;;;;;1.90;0.83;;;-0.90;99.90;-1.10;101114.00;;;;5054244;27;97821;-70
2021/12/20 04:18:20;;;;;;;1.60;0.90;;;0.60;99.90;-1.10;101125.00;;;;5054921;27;92871;-70
2021/12/20 04:20:45;;;;;;;1.00;0.67;;;0.20;99.90;-1.10;101125.00;;;;5035592;27;93783;-70
2021/12/20 04:23:11;;;;;;;4.60;1.33;;;-0.70;99.90;-1.10;101112.00;;;;5016704;27;110716;-70
2021/12/20 04:25:37;;;;;;;1.13;1.00;;;-0.70;99.90;-1.10;101112.00;;;;5035957;27;92255;-72
2021/12/20 04:28:03;;;;;;;0.70;0.57;;;-0.80;99.90;-1.10;101107.00;;;;5017346;27;92881;-70
2021/12/20 04:30:31;;;;;;;0.93;0.70;;;-0.70;99.90;-1.10;101111.00;;;;5035352;27;104943;-71
2021/12/20 04:33:00;;;;;;;1.17;0.90;;;-0.70;99.90;-1.10;101113.00;;;;5016663;27;94067;-72
2021/12/20 04:35:26;;;;;;;1.03;0.93;;;-0.70;99.90;-1.10;101113.00;;;;5035262;27;96596;-71
2021/12/20 04:37:53;;;;;;;1.20;1.07;;;-0.80;99.90;-1.10;101120.00;;;;5036055;27;92733;-70
2021/12/20 04:40:22;;;;;;;0.50;0.50;;;-0.80;99.90;-1.10;101107.00;;;;5046070;27;93948;-70
2021/12/20 04:42:53;;;;;;;1.50;1.13;;;-0.60;99.90;-1.00;101103.00;;;;5055672;27;93428;-70
2021/12/20 04:45:19;;;;;;;1.53;1.03;;;-1.90;99.90;-1.00;101109.00;;;;5055826;27;92894;-69
2021/12/20 04:47:44;;;;;;;0.60;0.60;;;0.20;99.90;-1.00;101107.00;;;;5056841;27;92912;-70
2021/12/20 04:50:11;;;;;;;8.30;1.10;;;-0.70;99.90;-1.00;101102.00;;;;5055498;27;120215;-72
2021/12/20 04:52:37;;;;;;;1.40;1.23;;;-0.60;99.90;-1.00;101103.00;;;;5036653;27;94455;-69
2021/12/20 04:55:05;;;;;;;0.90;0.60;;;-0.70;99.90;-1.00;101095.00;;;;5053042;27;92860;-69
2021/12/20 04:57:31;;;;;;;0.97;0.63;;;-0.70;99.90;-0.90;101115.00;;;;5046236;27;93813;-69
2021/12/20 04:59:57;;;;;;;2.30;0.60;;;-0.60;99.90;-0.90;101106.00;;;;5045046;27;94053;-70
2021/12/20 05:02:25;;;;;;;1.33;0.77;;;-0.60;99.90;-1.00;101116.00;;;;5056103;27;93009;-71
2021/12/20 05:04:50;;;;;;;2.80;1.33;;;-0.60;99.90;-1.00;101115.00;;;;5055995;27;92996;-71
2021/12/20 05:07:16;;;;;;;2.27;0.70;;;-0.70;99.90;-1.00;101118.00;;;;5052617;27;110009;-71
2021/12/20 05:09:42;;;;;;;3.30;0.87;;;-0.60;99.90;-1.00;101122.00;;;;5035352;27;93370;-70
2021/12/20 05:12:14;;;;;;;2.00;0.90;;;-0.80;99.90;-0.90;101126.00;;;;5035499;27;122587;-69
2021/12/20 05:14:44;;;;;;;2.43;0.73;;;-0.60;99.90;-0.90;101132.00;;;;5035655;27;91972;-71
2021/12/20 05:17:13;;;;;;;0.60;0.50;;;-0.50;99.90;-0.90;101141.00;;;;5016489;27;92878;-70
2021/12/20 05:19:40;;;;;;;3.07;0.90;;;-0.70;99.90;-0.90;101139.00;;;;5033052;27;105043;-68
2021/12/20 05:22:06;;;;;;;1.20;0.50;;;-0.60;99.90;-0.90;101142.00;;;;5034732;27;93959;-69
2021/12/20 05:24:32;;;;;;;0.40;0.40;;;-0.60;99.90;-0.90;101140.00;;;;5034638;27;103768;-72
2021/12/20 05:26:57;;;;;;;3.10;0.83;;;-0.60;99.90;-0.90;101136.00;;;;4999258;27;93240;-71
2021/12/20 05:29:24;;;;;;;0.87;0.60;;;-0.60;99.90;-0.90;101130.00;;;;5042695;27;122623;-71
2021/12/20 05:31:51;;;;;;;2.57;0.80;;;-0.50;99.90;-1.00;101143.00;;;;5055591;27;93849;-69
2021/12/20 05:34:17;;;;;;;1.87;1.03;;;-0.60;99.90;-1.00;101151.00;;;;5036209;27;93067;-69
2021/12/20 05:36:43;;;;;;;1.60;0.87;;;-0.70;99.90;-1.00;101151.00;;;;5040609;27;94967;-69
2021/12/20 05:39:09;;;;;;;5.97;0.70;;;-0.70;99.90;-1.00;101142.00;;;;5045556;27;122559;-68
2021/12/20 05:41:35;;;;;;;0.30;0.30;;;-0.60;99.90;-1.00;101150.00;;;;5054785;27;121727;-70
2021/12/20 05:44:00;;;;;;;0.77;0.77;;;-0.60;99.90;-1.00;101156.00;;;;5034511;27;109969;-69
2021/12/20 05:46:26;;;;;;;1.27;0.93;;;-0.60;99.90;-1.00;101160.00;;;;5052664;27;93815;-68
2021/12/20 05:48:52;;;;;;;3.20;1.47;;;-0.70;99.90;-1.10;101162.00;;;;5053893;27;111646;-69
2021/12/20 05:51:17;;;;;;;1.27;1.13;;;-0.80;99.90;-1.00;101162.00;;;;5053682;27;121646;-70
2021/12/20 05:53:43;;;;;;;4.17;1.10;;;-0.70;99.90;-1.00;101155.00;;;;5035327;27;109732;-70
2021/12/20 05:56:09;;;;;;;1.13;0.87;;;-0.70;99.90;-1.00;101153.00;;;;5053496;27;109219;-67
2021/12/20 05:58:35;;;;;;;0.70;0.70;;;0.00;99.90;-1.00;101152.00;;;;5050953;27;109208;-69
2021/12/20 06:01:00;;;;;;;0.50;0.50;;;-0.70;99.90;-1.10;101157.00;;;;5043115;27;122577;-68
2021/12/20 06:03:26;;;;;;;1.67;1.50;;;-0.70;99.90;-1.10;101162.00;;;;5037611;27;111292;-68
2021/12/20 06:05:52;;;;;;;0.80;0.80;;;-0.60;99.90;-1.00;101172.00;;;;5054333;27;98389;-67
2021/12/20 06:08:18;;;;;;;1.17;0.70;;;-0.60;99.90;-1.00;101171.00;;;;5053196;27;123167;-68
2021/12/20 06:10:43;;;;;;;0.50;0.47;;;-0.70;99.90;-1.10;101170.00;;;;5050208;27;120941;-68
2021/12/20 06:13:09;;;;;;;0.70;0.70;;;-0.70;99.90;-1.10;101166.00;;;;5054215;27;92674;-69
2021/12/20 06:15:35;;;;;;;0.67;0.67;;;-0.80;99.90;-1.10;101182.00;;;;5052973;27;108878;-67
2021/12/20 06:18:00;;;;;;;3.27;1.83;;;-0.70;99.90;-1.10;101170.00;;;;5053507;27;121174;-69
2021/12/20 06:20:26;;;;;;;1.60;1.23;;;-0.80;99.90;-1.10;101176.00;;;;5051916;27;121044;-67
2021/12/20 06:22:52;;;;;;;1.53;0.60;;;-0.80;99.90;-1.10;101180.00;;;;5053744;27;110371;-67
2021/12/20 06:25:19;;;;;;;0.70;0.67;;;-0.70;99.90;-1.10;101181.00;;;;5054018;27;92791;-67
2021/12/20 06:27:47;;;;;;;2.03;1.57;;;-0.80;99.90;-1.10;101184.00;;;;5053675;27;104643;-69
2021/12/20 06:30:14;;;;;;;1.10;0.70;;;-0.70;99.90;-1.10;101176.00;;;;5051113;27;92991;-67
2021/12/20 06:32:43;;;;;;;2.47;1.00;;;-0.80;99.90;-1.10;101185.00;;;;5040024;27;93008;-67
2021/12/20 06:35:10;;;;;;;1.27;0.60;;;-0.80;99.90;-1.10;101190.00;;;;5034834;27;97594;-69
2021/12/20 06:37:36;;;;;;;0.93;0.77;;;-0.70;99.90;-1.10;101186.00;;;;5033298;27;94075;-66
2021/12/20 06:40:04;;;;;;;1.33;1.13;;;-0.70;99.90;-1.10;101192.00;;;;5033140;27;93680;-67
2021/12/20 06:42:30;;;;;;;5.30;0.87;;;-0.70;99.90;-1.10;101206.00;;;;5032410;27;93600;-67
2021/12/20 06:44:56;;;;;;;2.10;0.97;;;-0.80;99.90;-1.10;101213.00;;;;5034500;27;93151;-67
2021/12/20 06:47:22;;;;;;;4.03;1.03;;;-0.70;99.90;-1.00;101203.00;;;;5029509;27;122317;-67
2021/12/20 06:49:48;;;;;;;2.17;1.33;;;-0.80;99.90;-1.00;101208.00;;;;5012516;27;93638;-67
2021/12/20 06:52:14;;;;;;;2.30;1.33;;;0.20;99.90;-1.00;101207.00;;;;5031065;27;98451;-68
2021/12/20 06:54:40;;;;;;;1.80;1.03;;;-0.70;99.90;-1.00;101215.00;;;;5032102;27;93059;-69
2021/12/20 06:57:05;;;;;;;0.70;0.70;;;-0.60;99.90;-1.00;101210.00;;;;5029256;27;122972;-67
2021/12/20 06:59:31;;;;;;;2.00;0.90;;;-0.60;99.90;-1.00;101220.00;;;;5033587;27;117426;-67
2021/12/20 07:01:57;;;;;;;2.17;1.53;;;-0.80;99.90;-1.00;101205.00;;;;5033987;27;93115;-68
2021/12/20 07:04:23;;;;;;;2.30;1.00;;;-0.60;99.90;-1.00;101205.00;;;;5031401;27;93233;-67
2021/12/20 07:06:49;;;;;;;2.73;1.23;;;-0.70;99.90;-1.00;101222.00;;;;5032120;27;123081;-67
2021/12/20 07:09:15;;;;;;;2.70;1.03;;;-0.50;99.90;-1.00;101219.00;;;;5035605;27;93289;-67
2021/12/20 07:11:42;;;;;;;4.00;1.00;;;-0.60;99.90;-1.00;101217.00;;;;5031893;27;93042;-67
2021/12/20 07:14:08;;;;;;;2.97;0.90;;;-0.70;99.90;-1.10;101219.00;;;;5030178;27;92922;-68
2021/12/20 07:16:35;;;;;;;2.60;2.07;;;0.10;99.90;-1.10;101233.00;;;;5028932;27;122899;-69
2021/12/20 07:19:03;;;;;;;3.70;0.93;;;-0.70;99.90;-1.10;101231.00;;;;5049841;27;93477;-68
2021/12/20 07:21:28;;;;;;;2.57;1.60;;;-0.80;99.90;-1.10;101231.00;;;;5038851;27;95998;-67
2021/12/20 07:23:54;;;;;;;5.67;1.53;;;-0.80;99.90;-1.10;101228.00;;;;5029144;27;108959;-67
2021/12/20 07:26:20;;;;;;;0.87;0.80;;;-0.80;99.90;-1.10;101238.00;;;;5038294;27;122335;-68
2021/12/20 07:28:46;;;;;;;2.00;1.23;;;-0.80;99.90;-1.10;101228.00;;;;5010331;27;93165;-69
2021/12/20 07:31:14;;;;;;;2.83;1.57;;;-0.60;99.90;-1.10;101232.00;;;;5030418;27;110330;-68
2021/12/20 07:33:41;;;;;;;1.00;0.90;;;-0.70;99.90;-1.00;101235.00;;;;5029588;27;92773;-69
2021/12/20 07:36:07;;;;;;;4.83;1.53;;;-0.70;99.90;-0.90;101242.00;;;;5033547;27;93670;-68
2021/12/20 07:38:34;;;;;;;1.30;1.10;;;-0.60;99.90;-0.80;101248.00;;;;5029908;27;93598;-68
2021/12/20 07:41:00;;;;;;;5.33;1.50;;;-0.60;99.90;-0.70;101258.00;;;;5032870;27;92124;-68
2021/12/20 07:43:26;;;;;;;1.67;0.90;;;-0.40;99.90;-0.60;101263.00;;;;5037104;27;93006;-68
2021/12/20 07:45:55;;;;;;;3.90;1.30;;;0.50;99.90;-0.50;101257.00;;;;5040166;27;108160;-68
2021/12/20 07:48:21;;;;;;;5.00;1.17;;;-0.30;99.90;-0.30;101261.00;;;;5042358;27;94052;-68
2021/12/20 07:50:49;;;;;;;1.40;1.30;;;0.80;99.90;-0.20;101259.00;;;;5053328;27;111360;-67
2021/12/20 07:53:15;;;;;;;10.00;1.90;;;0.00;99.90;-0.10;101256.00;;;;5036483;27;93141;-66
2021/12/20 07:55:41;;;;;;;2.17;1.10;;;0.20;99.90;0.00;101253.00;;;;5035975;27;93888;-67
2021/12/20 07:58:07;;;;;;;3.50;1.47;;;0.50;99.90;0.20;101254.00;;;;5052174;27;124401;-67
2021/12/20 08:00:33;;;;;;;3.40;1.30;;;0.40;99.90;0.30;101260.00;;;;5036461;27;101664;-67
2021/12/20 08:03:00;;;;;;;8.20;1.13;;;0.50;99.90;0.40;101262.00;;;;5026886;27;92907;-67
2021/12/20 08:05:27;;;;;;;6.27;1.10;;;1.20;99.90;0.50;101261.00;;;;5057508;27;92381;-67
2021/12/20 08:07:53;;;;;;;4.10;1.20;;;0.80;99.90;0.60;101272.00;;;;5056290;27;92977;-66
2021/12/20 08:10:25;;;;;;;1.13;0.80;;;1.80;99.90;0.70;101275.00;;;;5040987;27;93432;-66
2021/12/20 08:12:53;;;;;;;1.43;1.13;;;1.00;99.90;0.80;101285.00;;;;5040623;27;93814;-68
2021/12/20 08:15:21;;;;;;;3.40;0.90;;;1.30;99.90;1.00;101289.00;;;;5030662;27;123164;-68
2021/12/20 08:17:48;;;;;;;2.07;1.00;;;1.40;99.90;1.10;101279.00;;;;5037344;27;93700;-66
2021/12/20 08:20:14;;;;;;;1.73;1.10;;;1.30;99.90;1.30;101287.00;;;;5017834;27;92881;-67
2021/12/20 08:22:40;;;;;;;1.20;0.97;;;2.30;99.90;1.40;101295.00;;;;5035140;27;109625;-67
2021/12/20 08:25:07;;;;;;;2.10;0.93;;;1.70;99.90;1.60;101289.00;;;;5042311;27;93484;-68
2021/12/20 08:27:33;;;;;;;2.00;0.83;;;1.90;99.90;1.70;101288.00;;;;5035689;27;93290;-66
2021/12/20 08:29:59;;;;;;;3.97;1.30;;;2.00;99.90;1.80;101280.00;;;;5036380;27;97125;-67
2021/12/20 08:32:25;;;;;;;5.70;1.77;;;2.10;99.90;1.90;101287.00;;;;5036717;27;93277;-67
2021/12/20 08:34:51;;;;;;;2.80;1.40;;;2.30;99.90;2.10;101301.00;;;;5036731;27;94079;-67
2021/12/20 08:37:17;;;;;;;1.00;0.90;;;2.50;99.90;2.30;101290.00;;;;5040392;27;106308;-67
2021/12/20 08:39:43;;;;;;;1.40;1.20;;;2.60;99.90;2.50;101302.00;;;;5043508;27;110163;-67
2021/12/20 08:42:09;;;;;;;2.57;0.83;;;2.80;99.90;2.60;101306.00;;;;5035228;27;108293;-66
2021/12/20 08:44:35;;;;;;;1.57;1.00;;;3.10;99.90;2.80;101305.00;;;;5042733;27;117645;-68
2021/12/20 08:47:01;;;;;;;1.47;0.63;;;3.10;99.90;2.90;101291.00;;;;5019340;27;96506;-67
2021/12/20 08:49:28;;;;;;;1.83;1.07;;;3.20;99.90;3.10;101289.00;;;;5056300;27;92838;-67
2021/12/20 08:51:56;;;;;;;0.97;0.80;;;3.40;99.90;3.30;101303.00;;;;5055368;27;107876;-67
2021/12/20 08:54:27;;;;;;;0.70;0.60;;;3.50;99.90;3.40;101304.00;;;;5034098;27;94821;-67
2021/12/20 08:56:53;;;;;;;2.63;0.77;;;3.60;99.90;3.60;101310.00;;;;5051611;27;92906;-69
2021/12/20 08:59:19;;;;;;;0.90;0.80;;;3.90;99.90;3.70;101306.00;;;;5052714;27;110637;-67
2021/12/20 09:01:45;;;;;;;1.03;0.80;;;3.10;99.90;3.80;101325.00;;;;5052347;27;93697;-68
2021/12/20 09:04:12;;;;;;;3.10;1.00;;;4.00;99.90;3.90;101315.00;;;;5052167;27;122755;-67
2021/12/20 09:06:40;;;;;;;1.43;1.00;;;4.10;99.90;4.00;101319.00;;;;5052376;27;93292;-66
2021/12/20 09:09:08;;;;;;;3.07;1.03;;;4.30;99.90;4.00;101321.00;;;;5052823;27;92878;-67
2021/12/20 09:11:35;;;;;;;4.67;1.20;;;4.30;99.90;4.10;101329.00;;;;5031107;27;93089;-67
2021/12/20 09:14:02;;;;;;;1.80;0.87;;;4.40;99.90;4.30;101331.00;;;;5031815;27;94194;-68
2021/12/20 09:16:28;;;;;;;2.50;0.97;;;4.50;99.90;4.40;101325.00;;;;5031420;27;93260;-67
2021/12/20 09:18:54;;;;;;;2.90;0.80;;;4.60;99.90;4.50;101329.00;;;;5033065;27;92177;-67
2021/12/20 09:21:20;;;;;;;3.50;0.97;;;4.70;99.90;4.70;101327.00;;;;5032051;27;93267;-67
2021/12/20 09:23:46;;;;;;;3.70;1.27;;;4.80;99.90;4.80;101334.00;;;;5031551;27;107430;-68
2021/12/20 09:26:14;;;;;;;0.97;0.93;;;5.00;99.90;4.90;101333.00;;;;5012116;27;118733;-67
2021/12/20 09:28:40;;;;;;;5.20;0.87;;;5.10;99.90;5.10;101342.00;;;;5032692;27;92965;-68
2021/12/20 09:31:08;;;;;;;0.90;0.80;;;5.20;99.90;5.20;101356.00;;;;5052867;27;92916;-66
2021/12/20 09:33:34;;;;;;;1.97;0.83;;;5.50;99.90;5.40;101352.00;;;;5052783;27;95026;-66
2021/12/20 09:36:00;;;;;;;2.03;0.77;;;5.60;99.90;5.60;101340.00;;;;5051417;27;93538;-66
2021/12/20 09:38:28;;;;;;;1.97;0.77;;;5.70;99.90;5.80;101355.00;;;;5052522;27;93769;-67
2021/12/20 09:43:44;;;;;;;4.00;1.10;;;6.10;99.90;6.10;101356.00;;;;5051677;27;92170;-68
2021/12/20 09:46:09;;;;;;;3.13;0.70;;;6.30;99.90;6.20;101363.00;;;;5032550;27;93512;-70
2021/12/20 09:48:36;;;;;;;3.73;0.80;;;6.40;99.90;6.20;101350.00;;;;5051662;27;103978;-69
2021/12/20 09:51:04;;;;;;;2.27;1.03;;;6.40;99.90;6.30;101357.00;;;;5032588;27;93902;-71
2021/12/20 09:53:30;;;;;;;2.80;1.00;;;6.50;99.90;6.20;101357.00;;;;5051621;27;94270;-68
2021/12/20 09:55:59;;;;;;;2.53;0.90;;;6.50;99.90;6.10;101358.00;;;;5051571;27;93534;-69
2021/12/20 09:58:27;;;;;;;1.27;0.97;;;6.40;99.90;6.00;101351.00;;;;5051875;27;93424;-70
2021/12/20 10:00:54;;;;;;;1.27;0.73;;;6.30;99.90;6.00;101351.00;;;;5051415;27;92851;-70
2021/12/20 10:03:23;;;;;;;3.40;0.80;;;6.20;99.90;5.90;101356.00;;;;5051588;27;108043;-67
2021/12/20 10:05:54;;;;;;;1.70;0.60;;;6.20;99.90;5.70;101362.00;;;;5050937;27;93843;-69
2021/12/20 10:08:26;;;;;;;2.73;1.00;;;6.00;99.90;5.80;101355.00;;;;5052558;27;92029;-68
2021/12/20 10:10:52;;;;;;;1.90;1.23;;;6.00;99.90;5.90;101349.00;;;;5051591;27;92887;-68
2021/12/20 10:13:33;;;;;;;3.07;1.10;;;6.10;99.90;6.00;101346.00;;;;5055976;27;94177;-69
2021/12/20 10:16:01;;;;;;;5.50;1.07;;;6.10;99.90;6.20;101343.00;;;;5032231;27;94066;-68
2021/12/20 10:18:32;;;;;;;2.60;0.90;;;6.30;99.90;6.30;101345.00;;;;5051154;27;97780;-70
2021/12/20 10:21:01;;;;;;;7.10;1.20;;;6.40;99.90;6.30;101358.00;;;;5052389;27;92819;-69
2021/12/20 10:23:31;;;;;;;1.17;0.60;;;6.50;99.90;6.50;101349.00;;;;5051454;27;93357;-69
2021/12/20 10:26:12;;;;;;;3.23;0.90;;;6.60;99.90;6.70;101345.00;;;;5050730;27;92865;-67
2021/12/20 10:28:38;;;;;;;3.20;0.60;;;6.90;99.90;6.80;101352.00;;;;5021583;27;92785;-68
2021/12/20 10:31:09;;;;;;;1.23;1.07;;;6.90;99.90;6.90;101349.00;;;;5012747;27;92844;-70
2021/12/20 10:33:36;;;;;;;2.87;1.20;;;7.00;99.90;6.90;101352.00;;;;5038140;27;92317;-69
2021/12/20 10:36:13;;;;;;;1.70;0.90;;;7.10;99.90;6.90;101346.00;;;;5030939;27;92996;-69
2021/12/20 10:38:56;;;;;;;8.57;1.30;;;7.10;99.90;7.00;101370.00;;;;5031528;27;92731;-70
2021/12/20 10:41:36;;;;;;;5.10;0.70;;;7.10;99.90;7.20;101361.00;;;;5041297;27;93947;-71
2021/12/20 10:44:16;;;;;;;0.90;0.73;;;7.30;99.90;7.40;101359.00;;;;5041499;27;93960;-72
2021/12/20 10:46:53;;;;;;;1.20;0.77;;;7.40;99.90;7.60;101360.00;;;;5012115;27;93081;-70
2021/12/20 10:49:27;;;;;;;2.43;1.27;;;7.60;99.90;7.70;101367.00;;;;5038101;27;98150;-69
2021/12/20 10:51:54;;;;;;;6.80;1.00;;;7.70;99.90;7.80;101362.00;;;;5011892;27;94187;-70
2021/12/20 10:54:25;;;;;;;1.63;1.20;;;9.30;99.90;7.90;101362.00;;;;5030477;27;94221;-69
2021/12/20 10:57:05;;;;;;;0.60;0.60;;;8.00;99.90;8.00;101367.00;;;;5029830;27;93960;-70
2021/12/20 10:59:35;;;;;;;0.83;0.83;;;8.10;99.90;7.80;101366.00;;;;5014436;27;92229;-70
2021/12/20 11:03:09;;;;;;;1.60;1.13;;;8.00;99.90;7.70;101370.00;;;;5030581;27;92753;-69
2021/12/20 11:05:08;;;;;;;2.30;1.07;;;7.80;99.90;7.70;101361.00;;;;5032124;27;93171;-70
2021/12/20 11:10:23;;;;;;;1.70;0.80;;;7.80;99.90;8.10;101370.00;;;;4991252;27;92809;-71
2021/12/20 11:12:49;;;;;;;3.57;1.07;;;8.10;99.90;8.30;101377.00;;;;5039601;27;92804;-69